x

East Scotia Slope (44137) Wave Buoy

9:00pm - Thu 28th Jul 2016 All times are EDT. -4 hours from GMT.

  • Sig Wave height 2.0ft
  • Peak Period 8s
  • Wind
    9mph
  • Sea Temp 69°f
  • Air Temp 71°f
  • Sea Pressure 1016.3mb
  • East Scotia Slope
  • East Scotia Slope

More Historic Weather Station data

Upgrade to MSW Pro to gain access to the past 30 days of data for over 8000 Wavebouys and Weather Stations around the globe.

Join Pro

Comparision Forecast

View Surf forecast
   
Thu 07/28 9:00pm 2ft 8s 9
mph
1016.3mb 69f 71f
8:00pm 2ft 6s 11
mph
1015.9mb 69f 71f
7:00pm 2ft 7s 9
mph
1015.7mb 70f 71f
6:00pm 2.5ft 7s 9 11 mph 1015.6mb 71f 72f
5:00pm 2.5ft 6s 7 9 mph 1015.3mb 71f 72f
4:00pm 2.5ft 7s 4 7 mph 1015.4mb 71f 72f
3:00pm 2.5ft 8s 7
mph
1015.6mb 71f 72f
2:00pm 2.5ft 8s 9 11 mph 1015.6mb 70f 71f
1:00pm 2.5ft 8s 7
mph
1015.9mb 70f 71f
12:00pm 2.5ft 9s 4 7 mph 1015.9mb 70f 69f
11:00am 2.5ft 7s 4 7 mph 1016.1mb 69f 67f
10:00am 2.5ft 6s 4 7 mph 1015.8mb 69f 66f
9:00am 2.5ft 7s 4
mph
1015.5mb 69f 66f
8:00am 2.5ft 8s 2 4 mph 1015.7mb 69f 65f
7:00am 2.5ft 6s 2
mph
1015.5mb 68f 65f
6:00am 2.5ft 7s 2 4 mph 1015.2mb 68f 65f
5:00am 2.5ft 8s 2 4 mph 1014.7mb 68f 65f
4:00am 2.5ft 8s 4 7 mph 1014.5mb 68f 65f
3:00am 3ft 7s 7 9 mph 1014.5mb 68f 65f
2:00am 2.5ft 6s 4 7 mph 1013.8mb 68f 65f
1:00am 2.5ft 8s 7 9 mph 1013.7mb 69f 65f
12:00am 2.5ft 6s 4 7 mph 1013.7mb 68f 65f
Wed 07/27 11:00pm 2.5ft 8s 4
mph
1013.8mb 69f 65f
10:00pm 2.5ft 7s 2 4 mph 1013.9mb 69f 66f
9:00pm 2.5ft 7s  -  2 mph 1013.9mb 69f 65f
8:00pm 2.5ft 6s 4 7 mph 1013.5mb 69f 65f
7:00pm 2.5ft 8s 2 4 mph 1013.2mb 69f 66f
6:00pm 2.5ft 7s 4
mph
1012.9mb 69f 66f
5:00pm 2.5ft 7s 4 7 mph 1012.7mb 69f 66f
4:00pm 2.5ft 7s 4 7 mph 1012.6mb 69f 66f
3:00pm 2.5ft 7s 7 9 mph 1012.4mb 69f 66f
2:00pm 2.5ft 6s 9 11 mph 1012.3mb 69f 67f
1:00pm 2.5ft 6s 7 9 mph 1012.1mb 70f 67f
12:00pm 2.5ft 6s 4 7 mph 1011.8mb 70f 67f
11:00am 2.5ft 6s 7 9 mph 1011.7mb 70f 67f
10:00am 2.5ft 6s 7 9 mph 1011.6mb 70f 66f
9:00am 2.5ft 6s 7 9 mph 1011.6mb 69f 66f
8:00am 2.5ft 6s 7 9 mph 1011.6mb 69f 66f
7:00am 3ft 6s 9 11 mph 1011mb 69f 66f
6:00am 3ft 6s 11 13 mph 1010.7mb 68f 67f
5:00am 3.5ft 6s 11 13 mph 1010mb 68f 67f
4:00am 2.5ft 6s 9 13 mph 1009.8mb 68f 66f
3:00am 2.5ft 6s 11 13 mph 1009.7mb 68f 67f
2:00am 2.5ft 6s 9 11 mph 1009.5mb 69f 67f
1:00am 2.5ft 7s 13 16 mph 1009.4mb 69f 67f
12:00am 2.5ft 6s 9 11 mph 1009.5mb 69f 69f
Tue 07/26 11:00pm 2.5ft 5s 11 13 mph 1009.4mb 69f 71f
10:00pm 2.5ft 4s 13
mph
1009.2mb 70f 71f
9:00pm 2.5ft 5s 11 13 mph 1009.6mb 70f 71f
8:00pm 2.5ft 5s 11
mph
1009.5mb 70f 71f
7:00pm 2.5ft 4s 11
mph
1009.4mb 69f 71f
6:00pm 2.5ft 4s 9 11 mph 1009.6mb 69f 71f
5:00pm 2.5ft 4s 9 11 mph 1009.7mb 69f 71f
4:00pm 2.5ft 4s 9 11 mph 1009.8mb 70f 71f
3:00pm 2.5ft 7s 13 16 mph 1009.9mb 70f 71f
2:00pm 2.5ft 6s 13 16 mph 1010.1mb 70f 71f
1:00pm 2.5ft 6s 11 13 mph 1010.8mb 70f 71f
12:00pm 2ft 6s 11
mph
1010.9mb 70f 71f
11:00am 2ft 6s 11 13 mph 1011.5mb 70f 71f
10:00am 2.5ft 6s 11
mph
1011.6mb 70f 71f
9:00am 2.5ft 7s 9
mph
1012.1mb 69f 71f
8:00am 2.5ft 6s 9 11 mph 1012.6mb 69f 71f
7:00am 2.5ft 7s 7 9 mph 1012.8mb 69f 70f
6:00am 2ft 6s 9
mph
1013mb 69f 70f
5:00am 2.5ft 7s 7 9 mph 1012.6mb 69f 70f
4:00am 2.5ft 6s 9
mph
1012.7mb 69f 70f
3:00am 2ft 7s 9
mph
1012.8mb 70f 69f
2:00am 2.5ft 7s 9 11 mph 1013.2mb 70f 69f
1:00am 2.5ft 6s 9 11 mph 1013.3mb 70f 69f
12:00am 2.5ft 6s 11 13 mph 1013.8mb 70f 69f
Mon 07/25 11:00pm 2.5ft 7s 9 11 mph 1014.1mb 70f 69f
10:00pm 2.5ft 7s 9 11 mph 1014.3mb 70f 69f
9:00pm 2.5ft 6s 9
mph
1014.7mb 70f 69f
8:00pm 2.5ft 6s 9 11 mph 1014.3mb 70f 69f
7:00pm 2.5ft 7s 9 11 mph 1014mb 70f 69f
6:00pm 2.5ft 7s 11 13 mph 1014.3mb 71f 70f
5:00pm 2.5ft 7s 9 11 mph 1014.1mb 71f 69f
4:00pm 2.5ft 8s 9 11 mph 1014.1mb 71f 69f
3:00pm 3ft 8s 9
mph
1014.1mb 71f 69f
2:00pm 2.5ft 7s 7 9 mph 1014.2mb 71f 69f
1:00pm 3ft 8s 7 9 mph 1014.7mb 71f 69f
12:00pm 2.5ft 7s 2 4 mph 1014.6mb 71f 69f
11:00am 3ft 8s 4 7 mph 1014.5mb 70f 69f
10:00am 3.5ft 7s 7 9 mph 1014.7mb 70f 68f
9:00am 3.5ft 8s 7
mph
1014.3mb 70f 66f
8:00am 3.5ft 8s 11 13 mph 1014.4mb 70f 65f
7:00am 3.5ft 8s 11 13 mph 1014mb 70f 66f
6:00am 4ft 7s 4 7 mph 1013.4mb 70f 67f
5:00am 4ft 8s 2 4 mph 1013.1mb 70f 66f
4:00am 3.5ft 8s 2 4 mph 1013.2mb 70f 65f
3:00am 4ft 8s 2 4 mph 1013.1mb 70f 65f